sensor_id;sensor_type;location;lat;lon;timestamp;pressure;altitude;pressure_sealevel;temperature;humidity
25560;BME280;13450;49.374;8.584;2023-02-02T00:01:26;101177.97;;;5.72;100.00
25560;BME280;13450;49.374;8.584;2023-02-02T00:03:55;101184.09;;;5.73;100.00
25560;BME280;13450;49.374;8.584;2023-02-02T00:06:27;101184.09;;;5.73;100.00
25560;BME280;13450;49.374;8.584;2023-02-02T00:08:55;101193.16;;;5.70;100.00
25560;BME280;13450;49.374;8.584;2023-02-02T00:11:22;101184.50;;;5.68;100.00
25560;BME280;13450;49.374;8.584;2023-02-02T00:13:47;101180.06;;;5.69;100.00
25560;BME280;13450;49.374;8.584;2023-02-02T00:16:40;101175.69;;;5.68;100.00
25560;BME280;13450;49.374;8.584;2023-02-02T00:19:20;101181.28;;;5.65;100.00
25560;BME280;13450;49.374;8.584;2023-02-02T00:21:47;101182.97;;;5.66;100.00
25560;BME280;13450;49.374;8.584;2023-02-02T00:24:15;101175.25;;;5.62;100.00
25560;BME280;13450;49.374;8.584;2023-02-02T00:26:46;101188.41;;;5.64;100.00
25560;BME280;13450;49.374;8.584;2023-02-02T00:29:17;101171.50;;;5.65;100.00
25560;BME280;13450;49.374;8.584;2023-02-02T00:31:45;101171.78;;;5.62;100.00
25560;BME280;13450;49.374;8.584;2023-02-02T00:34:13;101165.88;;;5.58;100.00
25560;BME280;13450;49.374;8.584;2023-02-02T00:36:40;101168.94;;;5.54;100.00
25560;BME280;13450;49.374;8.584;2023-02-02T00:39:06;101170.56;;;5.45;100.00
25560;BME280;13450;49.374;8.584;2023-02-02T00:41:32;101164.13;;;5.38;100.00
25560;BME280;13450;49.374;8.584;2023-02-02T00:43:57;101161.19;;;5.41;100.00
25560;BME280;13450;49.374;8.584;2023-02-02T00:46:41;101171.69;;;5.42;100.00
25560;BME280;13450;49.374;8.584;2023-02-02T00:49:10;101170.56;;;5.45;100.00
25560;BME280;13450;49.374;8.584;2023-02-02T00:51:36;101177.44;;;5.47;100.00
25560;BME280;13450;49.374;8.584;2023-02-02T00:54:02;101181.91;;;5.47;100.00
25560;BME280;13450;49.374;8.584;2023-02-02T00:56:28;101173.94;;;5.47;100.00
25560;BME280;13450;49.374;8.584;2023-02-02T00:58:54;101171.44;;;5.45;100.00
25560;BME280;13450;49.374;8.584;2023-02-02T01:01:21;101173.66;;;5.50;100.00
25560;BME280;13450;49.374;8.584;2023-02-02T01:03:47;101182.63;;;5.49;100.00
25560;BME280;13450;49.374;8.584;2023-02-02T01:06:13;101179.28;;;5.47;100.00
25560;BME280;13450;49.374;8.584;2023-02-02T01:08:39;101173.94;;;5.47;100.00
25560;BME280;13450;49.374;8.584;2023-02-02T01:11:05;101179.28;;;5.47;100.00
25560;BME280;13450;49.374;8.584;2023-02-02T01:13:31;101177.56;;;5.46;100.00
25560;BME280;13450;49.374;8.584;2023-02-02T01:15:58;101186.25;;;5.48;100.00
25560;BME280;13450;49.374;8.584;2023-02-02T01:18:24;101180.94;;;5.48;100.00
25560;BME280;13450;49.374;8.584;2023-02-02T01:21:00;101183.72;;;5.46;100.00
25560;BME280;13450;49.374;8.584;2023-02-02T01:23:26;101186.25;;;5.48;100.00
25560;BME280;13450;49.374;8.584;2023-02-02T01:25:56;101183.72;;;5.46;100.00
25560;BME280;13450;49.374;8.584;2023-02-02T01:28:26;101183.47;;;5.49;100.00
25560;BME280;13450;49.374;8.584;2023-02-02T01:30:52;101162.22;;;5.49;100.00
25560;BME280;13450;49.374;8.584;2023-02-02T01:33:18;101178.03;;;5.51;100.00
25560;BME280;13450;49.374;8.584;2023-02-02T01:35:53;101177.03;;;5.52;100.00
25560;BME280;13450;49.374;8.584;2023-02-02T01:38:20;101175.09;;;5.54;100.00
25560;BME280;13450;49.374;8.584;2023-02-02T01:40:48;101175.09;;;5.54;100.00
25560;BME280;13450;49.374;8.584;2023-02-02T01:46:23;101168.94;;;5.54;100.00
25560;BME280;13450;49.374;8.584;2023-02-02T01:48:56;101173.16;;;5.56;100.00
25560;BME280;13450;49.374;8.584;2023-02-02T01:51:31;101178.47;;;5.56;100.00
25560;BME280;13450;49.374;8.584;2023-02-02T01:54:00;101178.47;;;5.56;100.00
25560;BME280;13450;49.374;8.584;2023-02-02T01:56:38;101170.38;;;5.58;100.00
25560;BME280;13450;49.374;8.584;2023-02-02T01:59:09;101165.75;;;5.60;100.00
25560;BME280;13450;49.374;8.584;2023-02-02T02:01:36;101179.88;;;5.60;100.00
25560;BME280;13450;49.374;8.584;2023-02-02T02:04:02;101171.91;;;5.60;100.00
25560;BME280;13450;49.374;8.584;2023-02-02T02:06:29;101171.78;;;5.62;100.00
25560;BME280;13450;49.374;8.584;2023-02-02T02:09:01;101169.81;;;5.64;100.00
25560;BME280;13450;49.374;8.584;2023-02-02T02:11:33;101165.34;;;5.65;100.00
25560;BME280;13450;49.374;8.584;2023-02-02T02:14:02;101171.38;;;5.67;100.00
25560;BME280;13450;49.374;8.584;2023-02-02T02:29:25;101169.84;;;5.74;100.00
25560;BME280;13450;49.374;8.584;2023-02-02T02:34:47;101176.59;;;5.78;100.00
25560;BME280;13450;49.374;8.584;2023-02-02T02:37:36;101179.06;;;5.80;100.00
25560;BME280;13450;49.374;8.584;2023-02-02T02:42:55;101181.34;;;5.84;100.00
25560;BME280;13450;49.374;8.584;2023-02-02T02:45:25;101175.75;;;5.87;100.00
25560;BME280;13450;49.374;8.584;2023-02-02T02:47:51;101181.06;;;5.87;100.00
25560;BME280;13450;49.374;8.584;2023-02-02T02:50:17;101185.41;;;5.88;100.00
25560;BME280;13450;49.374;8.584;2023-02-02T02:52:44;101174.66;;;5.90;100.00
25560;BME280;13450;49.374;8.584;2023-02-02T02:55:11;101175.47;;;5.91;100.00
25560;BME280;13450;49.374;8.584;2023-02-02T02:58:02;101176.31;;;5.91;100.00
25560;BME280;13450;49.374;8.584;2023-02-02T03:00:44;101182.50;;;5.92;100.00
25560;BME280;13450;49.374;8.584;2023-02-02T03:03:35;101177.00;;;5.93;100.00
25560;BME280;13450;49.374;8.584;2023-02-02T03:06:09;101173.41;;;5.94;100.00
25560;BME280;13450;49.374;8.584;2023-02-02T03:08:47;101175.22;;;5.94;100.00
25560;BME280;13450;49.374;8.584;2023-02-02T03:11:16;101184.16;;;5.93;100.00
25560;BME280;13450;49.374;8.584;2023-02-02T03:13:42;101174.22;;;5.95;100.00
25560;BME280;13450;49.374;8.584;2023-02-02T03:16:08;101181.25;;;5.96;100.00
25560;BME280;13450;49.374;8.584;2023-02-02T03:18:34;101177.72;;;5.95;100.00
25560;BME280;13450;49.374;8.584;2023-02-02T03:21:00;101185.56;;;5.97;100.00
25560;BME280;13450;49.374;8.584;2023-02-02T03:23:26;101176.88;;;5.95;100.00
25560;BME280;13450;49.374;8.584;2023-02-02T03:25:54;101182.19;;;5.95;100.00
25560;BME280;13450;49.374;8.584;2023-02-02T03:28:20;101187.50;;;5.95;100.00
25560;BME280;13450;49.374;8.584;2023-02-02T03:30:50;101189.22;;;5.96;100.00
25560;BME280;13450;49.374;8.584;2023-02-02T03:33:16;101185.72;;;5.95;100.00
25560;BME280;13450;49.374;8.584;2023-02-02T03:35:42;101177.59;;;5.97;100.00
25560;BME280;13450;49.374;8.584;2023-02-02T03:38:08;101179.53;;;5.95;100.00
25560;BME280;13450;49.374;8.584;2023-02-02T03:40:33;101179.41;;;5.96;100.00
25560;BME280;13450;49.374;8.584;2023-02-02T03:42:58;101177.47;;;5.98;100.00
25560;BME280;13450;49.374;8.584;2023-02-02T03:45:27;101186.97;;;6.01;100.00
25560;BME280;13450;49.374;8.584;2023-02-02T03:47:53;101179.16;;;5.99;100.00
25560;BME280;13450;49.374;8.584;2023-02-02T03:50:18;101185.28;;;6.00;100.00
25560;BME280;13450;49.374;8.584;2023-02-02T03:52:44;101187.94;;;6.00;100.00
25560;BME280;13450;49.374;8.584;2023-02-02T03:55:09;101188.66;;;6.02;100.00
25560;BME280;13450;49.374;8.584;2023-02-02T03:57:34;101184.31;;;6.01;100.00
25560;BME280;13450;49.374;8.584;2023-02-02T04:00:00;101186.97;;;6.01;100.00
25560;BME280;13450;49.374;8.584;2023-02-02T04:02:25;101195.09;;;5.99;100.00
25560;BME280;13450;49.374;8.584;2023-02-02T04:04:52;101192.28;;;6.01;100.00
25560;BME280;13450;49.374;8.584;2023-02-02T04:07:17;101184.19;;;6.02;100.00
25560;BME280;13450;49.374;8.584;2023-02-02T04:09:43;101193.03;;;6.03;100.00
25560;BME280;13450;49.374;8.584;2023-02-02T04:12:08;101203.50;;;6.05;100.00
25560;BME280;13450;49.374;8.584;2023-02-02T04:14:33;101201.00;;;6.03;100.00
25560;BME280;13450;49.374;8.584;2023-02-02T04:16:58;101200.00;;;6.04;100.00
25560;BME280;13450;49.374;8.584;2023-02-02T04:19:24;101203.50;;;6.05;100.00
25560;BME280;13450;49.374;8.584;2023-02-02T04:21:49;101207.72;;;6.07;100.00
25560;BME280;13450;49.374;8.584;2023-02-02T04:24:14;101200.72;;;6.06;100.00
25560;BME280;13450;49.374;8.584;2023-02-02T04:26:40;101197.09;;;6.07;100.00
25560;BME280;13450;49.374;8.584;2023-02-02T04:29:06;101203.38;;;6.06;100.00
25560;BME280;13450;49.374;8.584;2023-02-02T04:31:31;101211.50;;;6.05;100.00
25560;BME280;13450;49.374;8.584;2023-02-02T04:34:02;101204.59;;;6.02;100.00
25560;BME280;13450;49.374;8.584;2023-02-02T04:36:28;101206.53;;;6.00;100.00
25560;BME280;13450;49.374;8.584;2023-02-02T04:38:56;101206.53;;;6.00;100.00
25560;BME280;13450;49.374;8.584;2023-02-02T04:41:22;101210.31;;;5.97;100.00
25560;BME280;13450;49.374;8.584;2023-02-02T04:43:47;101227.78;;;6.00;100.00
25560;BME280;13450;49.374;8.584;2023-02-02T04:46:13;101213.81;;;5.98;100.00
25560;BME280;13450;49.374;8.584;2023-02-02T04:48:39;101222.25;;;6.03;100.00
25560;BME280;13450;49.374;8.584;2023-02-02T04:51:08;101216.09;;;6.02;100.00
25560;BME280;13450;49.374;8.584;2023-02-02T04:53:34;101219.47;;;6.05;100.00
25560;BME280;13450;49.374;8.584;2023-02-02T04:56:13;101222.81;;;6.07;100.00
25560;BME280;13450;49.374;8.584;2023-02-02T04:58:38;101224.66;;;6.06;100.00
25560;BME280;13450;49.374;8.584;2023-02-02T05:01:30;101234.28;;;6.07;100.00
25560;BME280;13450;49.374;8.584;2023-02-02T05:03:56;101231.50;;;6.09;100.00
25560;BME280;13450;49.374;8.584;2023-02-02T05:06:22;101229.69;;;6.09;100.00
25560;BME280;13450;49.374;8.584;2023-02-02T05:08:47;101231.38;;;6.10;100.00
25560;BME280;13450;49.374;8.584;2023-02-02T05:11:15;101227.03;;;6.09;100.00
25560;BME280;13450;49.374;8.584;2023-02-02T05:13:46;101234.03;;;6.10;100.00
25560;BME280;13450;49.374;8.584;2023-02-02T05:16:12;101230.94;;;6.15;100.00
25560;BME280;13450;49.374;8.584;2023-02-02T05:18:38;101239.06;;;6.13;100.00
25560;BME280;13450;49.374;8.584;2023-02-02T05:21:03;101237.38;;;6.12;100.00
25560;BME280;13450;49.374;8.584;2023-02-02T05:23:29;101247.31;;;6.10;100.00
25560;BME280;13450;49.374;8.584;2023-02-02T05:25:55;101241.28;;;6.08;100.00
25560;BME280;13450;49.374;8.584;2023-02-02T05:28:22;101244.91;;;6.07;100.00
25560;BME280;13450;49.374;8.584;2023-02-02T05:30:48;101247.44;;;6.09;100.00
25560;BME280;13450;49.374;8.584;2023-02-02T05:33:14;101246.59;;;6.08;100.00
25560;BME280;13450;49.374;8.584;2023-02-02T05:35:44;101241.28;;;6.08;100.00
25560;BME280;13450;49.374;8.584;2023-02-02T05:38:09;101259.19;;;6.06;100.00
25560;BME280;13450;49.374;8.584;2023-02-02T05:40:37;101248.81;;;6.03;100.00
25560;BME280;13450;49.374;8.584;2023-02-02T05:43:03;101252.44;;;6.02;100.00
25560;BME280;13450;49.374;8.584;2023-02-02T05:45:28;101257.03;;;6.00;100.00
25560;BME280;13450;49.374;8.584;2023-02-02T05:47:57;101266.69;;;6.01;100.00
25560;BME280;13450;49.374;8.584;2023-02-02T05:50:25;101272.00;;;6.01;100.00
25560;BME280;13450;49.374;8.584;2023-02-02T05:52:53;101267.53;;;6.01;100.00
25560;BME280;13450;49.374;8.584;2023-02-02T05:55:18;101267.41;;;6.03;100.00
25560;BME280;13450;49.374;8.584;2023-02-02T05:57:49;101269.81;;;6.06;100.00
25560;BME280;13450;49.374;8.584;2023-02-02T06:00:15;101268.16;;;6.05;100.00
25560;BME280;13450;49.374;8.584;2023-02-02T06:02:40;101269.81;;;6.06;100.00
25560;BME280;13450;49.374;8.584;2023-02-02T06:05:06;101276.13;;;6.05;100.00
25560;BME280;13450;49.374;8.584;2023-02-02T06:07:31;101268.97;;;6.06;100.00
25560;BME280;13450;49.374;8.584;2023-02-02T06:09:57;101276.13;;;6.05;100.00
25560;BME280;13450;49.374;8.584;2023-02-02T06:12:22;101279.72;;;6.04;100.00
25560;BME280;13450;49.374;8.584;2023-02-02T06:14:48;101270.09;;;6.03;100.00
25560;BME280;13450;49.374;8.584;2023-02-02T06:17:15;101272.75;;;6.03;100.00
25560;BME280;13450;49.374;8.584;2023-02-02T06:19:41;101277.06;;;6.04;100.00
25560;BME280;13450;49.374;8.584;2023-02-02T06:22:06;101271.75;;;6.04;100.00
25560;BME280;13450;49.374;8.584;2023-02-02T06:24:31;101272.47;;;6.06;100.00
25560;BME280;13450;49.374;8.584;2023-02-02T06:26:57;101266.19;;;6.07;100.00
25560;BME280;13450;49.374;8.584;2023-02-02T06:29:23;101275.13;;;6.06;100.00
25560;BME280;13450;49.374;8.584;2023-02-02T06:31:48;101264.50;;;6.06;100.00
25560;BME280;13450;49.374;8.584;2023-02-02T06:34:13;101276.81;;;6.07;100.00
25560;BME280;13450;49.374;8.584;2023-02-02T06:36:39;101283.94;;;6.07;100.00
25560;BME280;13450;49.374;8.584;2023-02-02T06:39:05;101285.50;;;6.09;100.00
25560;BME280;13450;49.374;8.584;2023-02-02T06:41:32;101282.69;;;6.11;100.00
25560;BME280;13450;49.374;8.584;2023-02-02T06:43:58;101279.91;;;6.12;100.00
25560;BME280;13450;49.374;8.584;2023-02-02T06:46:23;101283.53;;;6.11;100.00
25560;BME280;13450;49.374;8.584;2023-02-02T06:48:49;101287.88;;;6.12;100.00
25560;BME280;13450;49.374;8.584;2023-02-02T06:51:14;101290.53;;;6.12;100.00
25560;BME280;13450;49.374;8.584;2023-02-02T06:53:39;101292.22;;;6.13;100.00
25560;BME280;13450;49.374;8.584;2023-02-02T06:56:10;101290.53;;;6.12;100.00
25560;BME280;13450;49.374;8.584;2023-02-02T06:58:36;101286.06;;;6.13;100.00
25560;BME280;13450;49.374;8.584;2023-02-02T07:01:11;101295.03;;;6.12;100.00
25560;BME280;13450;49.374;8.584;2023-02-02T07:03:40;101289.72;;;6.12;100.00
25560;BME280;13450;49.374;8.584;2023-02-02T07:06:24;101294.16;;;6.11;100.00
25560;BME280;13450;49.374;8.584;2023-02-02T07:08:52;101296.69;;;6.13;100.00
25560;BME280;13450;49.374;8.584;2023-02-02T07:11:19;101295.72;;;6.14;100.00
25560;BME280;13450;49.374;8.584;2023-02-02T07:13:46;101293.06;;;6.14;100.00
25560;BME280;13450;49.374;8.584;2023-02-02T07:16:17;101304.53;;;6.14;100.00
25560;BME280;13450;49.374;8.584;2023-02-02T07:18:43;101292.22;;;6.13;100.00
25560;BME280;13450;49.374;8.584;2023-02-02T07:21:24;101292.22;;;6.13;100.00
25560;BME280;13450;49.374;8.584;2023-02-02T07:23:56;101296.69;;;6.13;100.00
25560;BME280;13450;49.374;8.584;2023-02-02T07:26:27;101299.22;;;6.14;100.00
25560;BME280;13450;49.374;8.584;2023-02-02T07:28:53;101304.53;;;6.14;100.00
25560;BME280;13450;49.374;8.584;2023-02-02T07:31:21;101305.25;;;6.17;100.00
25560;BME280;13450;49.374;8.584;2023-02-02T07:33:48;101318.53;;;6.17;100.00
25560;BME280;13450;49.374;8.584;2023-02-02T07:36:18;101311.53;;;6.15;100.00
25560;BME280;13450;49.374;8.584;2023-02-02T07:38:44;101320.50;;;6.14;100.00
25560;BME280;13450;49.374;8.584;2023-02-02T07:41:10;101329.41;;;6.13;100.00
25560;BME280;13450;49.374;8.584;2023-02-02T07:43:36;101320.75;;;6.11;100.00
25560;BME280;13450;49.374;8.584;2023-02-02T07:46:04;101342.00;;;6.11;100.00
25560;BME280;13450;49.374;8.584;2023-02-02T07:48:31;101333.34;;;6.09;100.00
25560;BME280;13450;49.374;8.584;2023-02-02T07:50:58;101339.47;;;6.10;100.00
25560;BME280;13450;49.374;8.584;2023-02-02T07:53:24;101340.59;;;6.07;100.00
25560;BME280;13450;49.374;8.584;2023-02-02T07:55:50;101338.78;;;6.08;100.00
25560;BME280;13450;49.374;8.584;2023-02-02T07:58:15;101347.59;;;6.08;100.00
25560;BME280;13450;49.374;8.584;2023-02-02T08:00:40;101356.28;;;6.10;100.00
25560;BME280;13450;49.374;8.584;2023-02-02T08:03:09;101350.56;;;6.15;100.00
25560;BME280;13450;49.374;8.584;2023-02-02T08:05:35;101346.78;;;6.18;100.00
25560;BME280;13450;49.374;8.584;2023-02-02T08:08:00;101351.59;;;6.24;100.00
25560;BME280;13450;49.374;8.584;2023-02-02T08:10:25;101346.69;;;6.29;100.00
25560;BME280;13450;49.374;8.584;2023-02-02T08:12:51;101340.56;;;6.38;100.00
25560;BME280;13450;49.374;8.584;2023-02-02T08:15:16;101350.66;;;6.45;100.00
25560;BME280;13450;49.374;8.584;2023-02-02T08:17:45;101348.59;;;6.48;100.00
25560;BME280;13450;49.374;8.584;2023-02-02T08:20:11;101356.13;;;6.53;100.00
25560;BME280;13450;49.374;8.584;2023-02-02T08:22:37;101368.44;;;6.54;100.00
25560;BME280;13450;49.374;8.584;2023-02-02T08:25:04;101371.97;;;6.54;100.00
25560;BME280;13450;49.374;8.584;2023-02-02T08:27:29;101367.63;;;6.53;100.00
25560;BME280;13450;49.374;8.584;2023-02-02T08:29:57;101367.63;;;6.53;100.00
25560;BME280;13450;49.374;8.584;2023-02-02T08:32:26;101367.75;;;6.52;100.00
25560;BME280;13450;49.374;8.584;2023-02-02T08:34:52;101359.22;;;6.58;100.00
25560;BME280;13450;49.374;8.584;2023-02-02T08:37:17;101360.38;;;6.65;100.00
25560;BME280;13450;49.374;8.584;2023-02-02T08:39:43;101361.53;;;6.73;100.00
25560;BME280;13450;49.374;8.584;2023-02-02T08:42:08;101364.03;;;6.84;100.00
25560;BME280;13450;49.374;8.584;2023-02-02T08:44:33;101366.00;;;6.92;100.00
25560;BME280;13450;49.374;8.584;2023-02-02T08:46:59;101372.75;;;6.86;100.00
25560;BME280;13450;49.374;8.584;2023-02-02T08:49:24;101362.53;;;6.91;100.00
25560;BME280;13450;49.374;8.584;2023-02-02T08:51:50;101373.03;;;6.93;100.00
25560;BME280;13450;49.374;8.584;2023-02-02T08:54:15;101365.75;;;6.95;100.00
25560;BME280;13450;49.374;8.584;2023-02-02T08:56:40;101368.00;;;7.00;100.00
25560;BME280;13450;49.374;8.584;2023-02-02T08:59:05;101377.09;;;7.07;100.00
25560;BME280;13450;49.374;8.584;2023-02-02T09:01:33;101364.38;;;7.11;100.00
25560;BME280;13450;49.374;8.584;2023-02-02T09:04:04;101366.88;;;7.12;100.00
25560;BME280;13450;49.374;8.584;2023-02-02T09:06:35;101361.00;;;7.18;100.00
25560;BME280;13450;49.374;8.584;2023-02-02T09:09:01;101371.34;;;7.31;100.00
25560;BME280;13450;49.374;8.584;2023-02-02T09:11:26;101368.56;;;7.33;100.00
25560;BME280;13450;49.374;8.584;2023-02-02T09:13:55;101366.72;;;7.43;100.00
25560;BME280;13450;49.374;8.584;2023-02-02T09:16:21;101370.78;;;7.48;100.00
25560;BME280;13450;49.374;8.584;2023-02-02T09:18:47;101381.84;;;7.53;100.00
25560;BME280;13450;49.374;8.584;2023-02-02T09:21:14;101368.81;;;7.59;100.00
25560;BME280;13450;49.374;8.584;2023-02-02T09:23:41;101376.38;;;7.64;100.00
25560;BME280;13450;49.374;8.584;2023-02-02T09:28:35;101378.19;;;7.74;100.00
25560;BME280;13450;49.374;8.584;2023-02-02T09:31:03;101375.53;;;7.74;100.00
25560;BME280;13450;49.374;8.584;2023-02-02T09:33:29;101374.66;;;7.83;100.00
25560;BME280;13450;49.374;8.584;2023-02-02T09:35:54;101381.97;;;7.81;100.00
25560;BME280;13450;49.374;8.584;2023-02-02T09:38:19;101383.78;;;7.70;100.00
25560;BME280;13450;49.374;8.584;2023-02-02T09:40:44;101381.72;;;7.64;100.00
25560;BME280;13450;49.374;8.584;2023-02-02T09:45:55;101371.78;;;7.56;100.00
25560;BME280;13450;49.374;8.584;2023-02-02T09:48:59;101368.25;;;7.56;100.00
25560;BME280;13450;49.374;8.584;2023-02-02T09:51:29;101369.09;;;7.56;100.00
25560;BME280;13450;49.374;8.584;2023-02-02T09:54:02;101382.97;;;7.50;100.00
25560;BME280;13450;49.374;8.584;2023-02-02T09:56:38;101394.06;;;7.45;100.00
25560;BME280;13450;49.374;8.584;2023-02-02T09:59:09;101393.22;;;7.45;100.00
25560;BME280;13450;49.374;8.584;2023-02-02T10:01:39;101398.97;;;7.50;100.00
25560;BME280;13450;49.374;8.584;2023-02-02T10:06:58;101399.22;;;7.57;100.00
25560;BME280;13450;49.374;8.584;2023-02-02T10:09:43;101404.84;;;7.64;100.00
25560;BME280;13450;49.374;8.584;2023-02-02T10:12:43;101402.88;;;7.66;100.00
25560;BME280;13450;49.374;8.584;2023-02-02T10:18:22;101408.75;;;7.69;100.00
25560;BME280;13450;49.374;8.584;2023-02-02T10:21:05;101413.69;;;7.64;100.00
25560;BME280;13450;49.374;8.584;2023-02-02T10:23:44;101403.44;;;7.59;100.00
25560;BME280;13450;49.374;8.584;2023-02-02T10:26:19;101418.72;;;7.57;100.00
25560;BME280;13450;49.374;8.584;2023-02-02T10:34:36;101429.09;;;7.51;100.00
25560;BME280;13450;49.374;8.584;2023-02-02T10:45:37;101429.09;;;7.41;100.00
25560;BME280;13450;49.374;8.584;2023-02-02T10:48:16;101436.41;;;7.39;100.00
25560;BME280;13450;49.374;8.584;2023-02-02T10:50:45;101437.22;;;7.39;100.00
25560;BME280;13450;49.374;8.584;2023-02-02T10:53:13;101433.59;;;7.40;100.00
25560;BME280;13450;49.374;8.584;2023-02-02T11:00:47;101428.97;;;7.42;100.00
25560;BME280;13450;49.374;8.584;2023-02-02T11:03:19;101434.16;;;7.44;100.00
25560;BME280;13450;49.374;8.584;2023-02-02T11:05:45;101437.66;;;7.44;100.00
25560;BME280;13450;49.374;8.584;2023-02-02T11:08:35;101445.66;;;7.44;100.00
25560;BME280;13450;49.374;8.584;2023-02-02T11:11:37;101434.84;;;7.46;100.00
25560;BME280;13450;49.374;8.584;2023-02-02T11:19:00;101432.19;;;7.56;100.00
25560;BME280;13450;49.374;8.584;2023-02-02T11:21:27;101433.88;;;7.57;100.00
25560;BME280;13450;49.374;8.584;2023-02-02T11:24:02;101431.91;;;7.59;100.00
25560;BME280;13450;49.374;8.584;2023-02-02T11:29:33;101435.97;;;7.63;100.00
25560;BME280;13450;49.374;8.584;2023-02-02T11:32:26;101435.53;;;7.68;100.00
25560;BME280;13450;49.374;8.584;2023-02-02T11:35:16;101435.13;;;7.72;100.00
25560;BME280;13450;49.374;8.584;2023-02-02T11:38:14;101425.03;;;7.76;100.00
25560;BME280;13450;49.374;8.584;2023-02-02T11:41:06;101425.44;;;7.81;100.00
25560;BME280;13450;49.374;8.584;2023-02-02T11:43:38;101435.25;;;7.81;100.00
25560;BME280;13450;49.374;8.584;2023-02-02T11:46:24;101433.16;;;7.84;100.00
25560;BME280;13450;49.374;8.584;2023-02-02T11:49:05;101429.34;;;7.87;100.00
25560;BME280;13450;49.374;8.584;2023-02-02T11:51:32;101434.13;;;7.83;100.00
25560;BME280;13450;49.374;8.584;2023-02-02T11:54:23;101426.69;;;7.87;100.00
25560;BME280;13450;49.374;8.584;2023-02-02T11:56:53;101430.22;;;7.88;100.00
25560;BME280;13450;49.374;8.584;2023-02-02T12:04:45;101435.22;;;7.91;100.00
25560;BME280;13450;49.374;8.584;2023-02-02T12:07:22;101436.34;;;7.88;100.00
25560;BME280;13450;49.374;8.584;2023-02-02T12:09:50;101431.34;;;7.85;100.00
25560;BME280;13450;49.374;8.584;2023-02-02T12:12:24;101431.47;;;7.83;100.00
25560;BME280;13450;49.374;8.584;2023-02-02T12:15:15;101434.97;;;7.84;100.00
25560;BME280;13450;49.374;8.584;2023-02-02T12:17:44;101423.88;;;7.89;100.00
25560;BME280;13450;49.374;8.584;2023-02-02T12:20:15;101425.16;;;7.94;100.00
25560;BME280;13450;49.374;8.584;2023-02-02T12:50:20;101399.69;;;8.58;100.00
25560;BME280;13450;49.374;8.584;2023-02-02T12:58:26;101401.69;;;8.74;100.00
25560;BME280;13450;49.374;8.584;2023-02-02T13:04:01;101388.63;;;9.17;100.00
25560;BME280;13450;49.374;8.584;2023-02-02T13:11:50;101388.22;;;9.30;100.00
25560;BME280;13450;49.374;8.584;2023-02-02T13:14:27;101406.16;;;9.38;100.00
25560;BME280;13450;49.374;8.584;2023-02-02T13:17:59;101395.25;;;9.31;100.00
25560;BME280;13450;49.374;8.584;2023-02-02T13:19:55;101397.47;;;9.36;100.00
25560;BME280;13450;49.374;8.584;2023-02-02T13:22:30;101399.50;;;9.42;100.00
25560;BME280;13450;49.374;8.584;2023-02-02T13:25:00;101404.47;;;9.37;100.00
25560;BME280;13450;49.374;8.584;2023-02-02T13:27:28;101398.75;;;9.32;100.00
25560;BME280;13450;49.374;8.584;2023-02-02T13:32:39;101410.75;;;9.46;100.00
25560;BME280;13450;49.374;8.584;2023-02-02T13:35:19;101411.66;;;9.54;100.00
25560;BME280;13450;49.374;8.584;2023-02-02T13:38:03;101410.28;;;9.50;100.00
25560;BME280;13450;49.374;8.584;2023-02-02T13:40:37;101406.00;;;9.58;100.00
25560;BME280;13450;49.374;8.584;2023-02-02T13:54:24;101434.13;;;9.25;100.00
25560;BME280;13450;49.374;8.584;2023-02-02T14:04:54;101439.50;;;9.15;100.00
25560;BME280;13450;49.374;8.584;2023-02-02T14:07:42;101453.31;;;9.11;100.00
25560;BME280;13450;49.374;8.584;2023-02-02T14:10:27;101442.63;;;9.11;100.00
25560;BME280;13450;49.374;8.584;2023-02-02T14:12:54;101440.28;;;9.08;100.00
25560;BME280;13450;49.374;8.584;2023-02-02T14:15:42;101446.06;;;9.03;100.00
25560;BME280;13450;49.374;8.584;2023-02-02T14:18:08;101444.13;;;8.95;100.00
25560;BME280;13450;49.374;8.584;2023-02-02T14:20:47;101445.28;;;8.93;100.00
25560;BME280;13450;49.374;8.584;2023-02-02T14:26:04;101455.50;;;8.69;100.00
25560;BME280;13450;49.374;8.584;2023-02-02T14:28:41;101452.84;;;8.69;100.00
25560;BME280;13450;49.374;8.584;2023-02-02T14:31:51;101455.78;;;8.66;100.00
25560;BME280;13450;49.374;8.584;2023-02-02T14:34:35;101464.50;;;8.68;100.00
25560;BME280;13450;49.374;8.584;2023-02-02T14:39:36;101469.06;;;8.58;100.00
25560;BME280;13450;49.374;8.584;2023-02-02T14:45:28;101468.91;;;8.49;100.00
25560;BME280;13450;49.374;8.584;2023-02-02T14:47:56;101483.53;;;8.45;100.00
25560;BME280;13450;49.374;8.584;2023-02-02T14:50:33;101482.81;;;8.43;100.00
25560;BME280;13450;49.374;8.584;2023-02-02T14:55:50;101481.03;;;8.34;100.00
25560;BME280;13450;49.374;8.584;2023-02-02T15:16:56;101521.06;;;8.14;100.00
25560;BME280;13450;49.374;8.584;2023-02-02T15:19:32;101533.56;;;8.14;100.00
25560;BME280;13450;49.374;8.584;2023-02-02T15:22:22;101532.00;;;8.11;100.00
25560;BME280;13450;49.374;8.584;2023-02-02T15:24:53;101546.34;;;8.10;100.00
25560;BME280;13450;49.374;8.584;2023-02-02T15:27:19;101558.97;;;8.08;100.00
25560;BME280;13450;49.374;8.584;2023-02-02T15:29:51;101554.75;;;8.05;100.00
25560;BME280;13450;49.374;8.584;2023-02-02T15:32:21;101554.59;;;8.07;100.00
25560;BME280;13450;49.374;8.584;2023-02-02T15:34:53;101566.25;;;8.06;100.00
25560;BME280;13450;49.374;8.584;2023-02-02T15:37:23;101553.91;;;8.05;100.00
25560;BME280;13450;49.374;8.584;2023-02-02T15:39:56;101558.41;;;8.04;100.00
25560;BME280;13450;49.374;8.584;2023-02-02T15:42:44;101563.88;;;8.03;100.00
25560;BME280;13450;49.374;8.584;2023-02-02T15:45:49;101560.38;;;8.02;100.00